createdAt,value
2022-11-20T00:01:15.662Z,40.47
2022-11-20T00:03:19.606Z,40.00
2022-11-20T00:05:22.472Z,37.05
2022-11-20T00:07:38.554Z,37.58
2022-11-20T00:09:50.773Z,38.13
2022-11-20T00:11:52.619Z,37.92
2022-11-20T00:13:58.201Z,41.15
2022-11-20T00:16:19.865Z,41.38
2022-11-20T00:18:23.675Z,38.83
2022-11-20T00:20:29.723Z,42.03
2022-11-20T00:22:34.642Z,38.42
2022-11-20T00:24:41.664Z,41.00
2022-11-20T00:26:45.355Z,38.72
2022-11-20T00:29:01.486Z,42.55
2022-11-20T00:31:14.339Z,44.70
2022-11-20T00:33:16.172Z,40.97
2022-11-20T00:35:19.330Z,40.60
2022-11-20T00:37:21.254Z,36.53
2022-11-20T00:39:25.131Z,39.63
2022-11-20T00:41:35.042Z,37.90
2022-11-20T00:43:37.923Z,38.85
2022-11-20T00:45:39.736Z,40.10
2022-11-20T00:47:41.602Z,39.00
2022-11-20T00:49:43.536Z,37.75
2022-11-20T00:51:45.390Z,39.63
2022-11-20T00:53:47.769Z,43.90
2022-11-20T00:55:55.997Z,40.22
2022-11-20T00:57:57.780Z,44.13
2022-11-20T00:59:59.596Z,39.72
2022-11-20T01:02:01.396Z,42.88
2022-11-20T01:04:04.651Z,38.47
2022-11-20T01:06:13.551Z,40.65
2022-11-20T01:08:15.351Z,36.20
2022-11-20T01:10:18.538Z,36.90
2022-11-20T01:12:20.415Z,39.30
2022-11-20T01:14:25.246Z,47.15
2022-11-20T01:16:30.373Z,36.30
2022-11-20T01:18:34.028Z,39.85
2022-11-20T01:20:37.177Z,33.75
2022-11-20T01:22:40.448Z,34.38
2022-11-20T01:24:43.249Z,37.33
2022-11-20T01:26:46.481Z,35.63
2022-11-20T01:28:49.372Z,35.80
2022-11-20T01:30:51.229Z,30.98
2022-11-20T01:32:54.040Z,33.47
2022-11-20T01:34:55.880Z,37.63
2022-11-20T01:36:57.671Z,39.17
2022-11-20T01:39:02.236Z,35.35
2022-11-20T01:41:11.817Z,34.85
2022-11-20T01:43:23.733Z,35.28
2022-11-20T01:45:47.223Z,33.08
2022-11-20T01:47:50.871Z,37.30
2022-11-20T01:50:18.041Z,32.25
2022-11-20T01:52:43.901Z,33.80
2022-11-20T01:54:59.897Z,31.75
2022-11-20T01:57:03.057Z,33.55
2022-11-20T01:59:08.425Z,35.00
2022-11-20T02:01:12.769Z,35.72
2022-11-20T02:03:18.305Z,31.92
2022-11-20T02:05:23.213Z,30.52
2022-11-20T02:07:25.303Z,32.65
2022-11-20T02:09:27.778Z,35.85
2022-11-20T02:11:31.892Z,35.45
2022-11-20T02:13:46.971Z,36.95
2022-11-20T02:15:50.738Z,33.55
2022-11-20T02:17:58.512Z,37.30
2022-11-20T02:20:00.384Z,37.00
2022-11-20T02:22:13.101Z,34.83
2022-11-20T02:24:22.761Z,34.47
2022-11-20T02:26:28.625Z,35.58
2022-11-20T02:28:37.851Z,34.70
2022-11-20T02:30:39.873Z,37.42
2022-11-20T02:32:41.841Z,37.65
2022-11-20T02:34:49.912Z,37.63
2022-11-20T02:36:58.740Z,42.40
2022-11-20T02:39:00.741Z,37.50
2022-11-20T02:41:02.572Z,40.38
2022-11-20T02:43:04.369Z,38.33
2022-11-20T02:45:07.398Z,37.45
2022-11-20T02:47:19.334Z,34.35
2022-11-20T02:49:21.531Z,37.58
2022-11-20T02:51:25.070Z,37.72
2022-11-20T02:53:28.904Z,37.30
2022-11-20T02:55:40.250Z,34.78
2022-11-20T02:57:43.066Z,33.15
2022-11-20T02:59:44.915Z,33.45
2022-11-20T03:01:46.769Z,35.95
2022-11-20T03:04:13.557Z,39.38
2022-11-20T03:06:17.446Z,35.80
2022-11-20T03:08:19.293Z,33.00
2022-11-20T03:10:21.113Z,35.28
2022-11-20T03:12:22.928Z,36.97
2022-11-20T03:14:24.707Z,36.88
2022-11-20T03:16:33.698Z,36.40
2022-11-20T03:18:36.588Z,36.67
2022-11-20T03:20:38.446Z,34.28
2022-11-20T03:22:42.336Z,38.78
2022-11-20T03:24:50.290Z,34.75
2022-11-20T03:26:52.075Z,36.60
2022-11-20T03:28:58.736Z,35.42
2022-11-20T03:31:10.221Z,31.92
2022-11-20T03:33:12.019Z,33.03
2022-11-20T03:35:13.820Z,35.05
2022-11-20T03:37:16.705Z,31.23
2022-11-20T03:39:20.657Z,33.15
2022-11-20T03:41:37.023Z,31.63
2022-11-20T03:43:39.532Z,32.97
2022-11-20T03:45:41.405Z,33.53
2022-11-20T03:47:47.573Z,33.95
2022-11-20T03:49:51.213Z,33.15
2022-11-20T03:51:53.985Z,32.67
2022-11-20T03:53:59.246Z,31.88
2022-11-20T03:56:01.013Z,35.83
2022-11-20T03:58:02.942Z,31.75
2022-11-20T04:00:06.015Z,33.75
2022-11-20T04:02:07.894Z,31.13
2022-11-20T04:04:09.883Z,29.30
2022-11-20T04:06:18.620Z,28.90
2022-11-20T04:08:20.440Z,28.95
2022-11-20T04:10:28.526Z,31.60
2022-11-20T04:12:38.233Z,33.15
2022-11-20T04:14:40.268Z,32.80
2022-11-20T04:16:42.992Z,32.88
2022-11-20T04:18:45.253Z,32.15
2022-11-20T04:20:48.046Z,34.42
2022-11-20T04:22:49.932Z,31.33
2022-11-20T04:24:53.789Z,30.98
2022-11-20T04:26:55.701Z,31.40
2022-11-20T04:29:00.375Z,29.40
2022-11-20T04:31:12.984Z,30.60
2022-11-20T04:33:14.818Z,32.75
2022-11-20T04:35:16.669Z,32.67
2022-11-20T04:37:31.336Z,30.83
2022-11-20T04:39:34.197Z,29.33
2022-11-20T04:41:37.536Z,32.28
2022-11-20T04:43:41.347Z,28.20
2022-11-20T04:45:44.204Z,30.17
2022-11-20T04:47:52.048Z,30.00
2022-11-20T04:49:53.996Z,29.27
2022-11-20T04:51:55.882Z,32.72
2022-11-20T04:53:57.790Z,32.58
2022-11-20T04:56:08.946Z,31.20
2022-11-20T04:58:17.466Z,32.05
2022-11-20T05:00:21.472Z,30.85
2022-11-20T05:02:23.327Z,30.55
2022-11-20T05:04:28.746Z,32.90
2022-11-20T05:06:33.333Z,34.17
2022-11-20T05:08:35.667Z,34.25
2022-11-20T05:10:37.536Z,35.30
2022-11-20T05:12:39.374Z,34.33
2022-11-20T05:14:45.500Z,31.85
2022-11-20T05:16:47.368Z,34.03
2022-11-20T05:18:52.940Z,35.58
2022-11-20T05:20:58.922Z,41.60
2022-11-20T05:23:03.283Z,66.45
2022-11-20T05:25:15.237Z,70.22
2022-11-20T05:27:17.086Z,71.30
2022-11-20T05:29:19.103Z,95.35
2022-11-20T05:31:27.061Z,107.93
2022-11-20T05:33:31.037Z,93.88
2022-11-20T05:35:35.966Z,52.70
2022-11-20T05:37:37.787Z,52.38
2022-11-20T05:39:39.588Z,46.63
2022-11-20T05:41:47.296Z,38.38
2022-11-20T05:43:51.624Z,38.50
2022-11-20T05:45:57.443Z,33.72
2022-11-20T05:48:03.863Z,36.67
2022-11-20T05:50:06.163Z,37.53
2022-11-20T05:52:08.095Z,40.90
2022-11-20T05:54:17.034Z,48.30
2022-11-20T05:56:21.649Z,55.13
2022-11-20T05:58:23.546Z,85.13
2022-11-20T06:00:29.428Z,52.05
2022-11-20T06:02:31.265Z,43.00
2022-11-20T06:04:34.090Z,40.25
2022-11-20T06:06:37.008Z,39.17
2022-11-20T06:08:38.839Z,38.38
2022-11-20T06:10:40.650Z,33.55
2022-11-20T06:12:42.506Z,33.58
2022-11-20T06:14:44.418Z,32.80
2022-11-20T06:16:46.232Z,32.83
2022-11-20T06:18:48.571Z,32.80
2022-11-20T06:20:50.374Z,36.50
2022-11-20T06:22:52.285Z,35.60
2022-11-20T06:24:57.236Z,35.55
2022-11-20T06:26:59.036Z,32.95
2022-11-20T06:29:00.841Z,31.73
2022-11-20T06:31:03.190Z,31.73
2022-11-20T06:33:06.041Z,31.75
2022-11-20T06:35:08.325Z,32.85
2022-11-20T06:37:18.230Z,34.92
2022-11-20T06:39:20.378Z,35.30
2022-11-20T06:41:30.557Z,36.80
2022-11-20T06:43:37.662Z,33.15
2022-11-20T06:45:39.489Z,33.45
2022-11-20T06:47:42.387Z,32.92
2022-11-20T06:49:44.231Z,32.15
2022-11-20T06:51:49.196Z,29.75
2022-11-20T06:53:52.092Z,30.77
2022-11-20T06:55:57.938Z,32.65
2022-11-20T06:57:59.880Z,32.53
2022-11-20T07:00:01.846Z,31.50
2022-11-20T07:02:03.892Z,31.00
2022-11-20T07:04:06.873Z,31.90
2022-11-20T07:06:16.899Z,31.42
2022-11-20T07:08:18.712Z,34.78
2022-11-20T07:10:20.535Z,31.92
2022-11-20T07:12:22.419Z,32.15
2022-11-20T07:14:39.370Z,35.45
2022-11-20T07:16:41.273Z,30.67
2022-11-20T07:18:50.211Z,33.45
2022-11-20T07:20:56.579Z,27.10
2022-11-20T07:22:59.179Z,29.27
2022-11-20T07:25:01.024Z,31.30
2022-11-20T07:27:02.835Z,29.45
2022-11-20T07:29:04.782Z,28.92
2022-11-20T07:31:19.276Z,30.08
2022-11-20T07:33:21.695Z,29.63
2022-11-20T07:35:25.613Z,29.27
2022-11-20T07:37:35.789Z,26.90
2022-11-20T07:39:38.679Z,28.70
2022-11-20T07:41:40.612Z,32.00
2022-11-20T07:43:42.787Z,29.77
2022-11-20T07:45:44.639Z,30.55
2022-11-20T07:47:49.214Z,31.38
2022-11-20T07:49:51.057Z,32.72
2022-11-20T07:52:04.161Z,33.05
2022-11-20T07:54:11.802Z,34.15
2022-11-20T07:56:15.260Z,30.70
2022-11-20T07:58:24.226Z,33.55
2022-11-20T08:00:28.192Z,34.47
2022-11-20T08:02:42.294Z,29.63
2022-11-20T08:04:46.216Z,31.40
2022-11-20T08:06:49.075Z,31.88
2022-11-20T08:08:57.992Z,31.30
2022-11-20T08:11:18.433Z,34.08
2022-11-20T08:13:40.061Z,32.05
2022-11-20T08:15:43.108Z,34.17
2022-11-20T08:17:56.971Z,36.38
2022-11-20T08:20:08.465Z,32.55
2022-11-20T08:22:35.565Z,32.38
2022-11-20T08:24:44.235Z,33.55
2022-11-20T08:26:46.208Z,36.58
2022-11-20T08:28:49.070Z,31.95
2022-11-20T08:30:59.592Z,34.58
2022-11-20T08:33:19.879Z,36.53
2022-11-20T08:35:23.305Z,31.10
2022-11-20T08:37:42.629Z,34.28
2022-11-20T08:39:52.041Z,33.97
2022-11-20T08:41:59.869Z,33.47
2022-11-20T08:44:20.067Z,36.28
2022-11-20T08:46:27.993Z,30.90
2022-11-20T08:48:29.910Z,32.55
2022-11-20T08:50:33.636Z,33.55
2022-11-20T08:52:40.087Z,35.78
2022-11-20T08:54:50.750Z,33.10
2022-11-20T08:56:57.841Z,30.73
2022-11-20T08:59:31.594Z,30.90
2022-11-20T09:01:33.634Z,32.80
2022-11-20T09:03:36.526Z,30.70
2022-11-20T09:05:44.457Z,29.20
2022-11-20T09:07:47.311Z,32.20
2022-11-20T09:10:22.750Z,30.55
2022-11-20T09:12:30.603Z,31.98
2022-11-20T09:14:42.931Z,32.22
2022-11-20T09:16:47.604Z,30.63
2022-11-20T09:19:13.488Z,33.00
2022-11-20T09:21:24.123Z,33.20
2022-11-20T09:23:27.294Z,31.55
2022-11-20T09:25:35.076Z,30.33
2022-11-20T09:27:45.306Z,33.53
2022-11-20T09:29:55.250Z,37.00
2022-11-20T09:31:59.137Z,32.20
2022-11-20T09:34:00.967Z,29.73
2022-11-20T09:36:05.097Z,29.58
2022-11-20T09:38:10.151Z,30.73
2022-11-20T09:40:41.641Z,30.30
2022-11-20T09:43:25.008Z,31.52
2022-11-20T09:46:09.527Z,30.60
2022-11-20T09:48:49.801Z,29.85
2022-11-20T09:51:20.333Z,34.85
2022-11-20T09:53:56.408Z,31.83
2022-11-20T09:56:06.165Z,30.25
2022-11-20T09:58:22.537Z,31.85
2022-11-20T10:00:31.631Z,32.15
2022-11-20T10:02:43.218Z,33.35
2022-11-20T10:04:53.752Z,30.27
2022-11-20T10:07:38.284Z,31.98
2022-11-20T10:09:51.010Z,32.83
2022-11-20T10:12:11.288Z,33.58
2022-11-20T10:14:33.606Z,30.00
2022-11-20T10:17:05.150Z,30.58
2022-11-20T10:23:05.573Z,32.63
2022-11-20T10:25:19.667Z,30.48
2022-11-20T10:27:23.753Z,29.98
2022-11-20T10:29:40.840Z,29.65
2022-11-20T10:31:52.359Z,26.83
2022-11-20T10:34:49.760Z,28.25
2022-11-20T10:37:04.920Z,32.08
2022-11-20T10:39:37.272Z,29.30
2022-11-20T10:45:38.159Z,28.70
2022-11-20T10:47:53.110Z,34.25
2022-11-20T10:50:14.497Z,31.88
2022-11-20T10:52:58.601Z,31.90
2022-11-20T10:55:35.490Z,28.65
2022-11-20T10:58:09.250Z,29.00
2022-11-20T11:00:13.702Z,26.42
2022-11-20T11:02:20.565Z,28.92
2022-11-20T11:04:33.959Z,26.95
2022-11-20T11:06:48.485Z,27.70
2022-11-20T11:09:17.122Z,27.83
2022-11-20T11:11:32.258Z,32.55
2022-11-20T11:13:34.178Z,30.85
2022-11-20T11:15:42.378Z,28.58
2022-11-20T11:17:48.978Z,29.70
2022-11-20T11:20:05.324Z,25.02
2022-11-20T11:22:17.189Z,28.30
2022-11-20T11:24:44.694Z,29.45
2022-11-20T11:27:11.279Z,26.67
2022-11-20T11:29:30.590Z,27.27
2022-11-20T11:31:42.371Z,29.23
2022-11-20T11:36:23.609Z,24.52
2022-11-20T11:38:46.053Z,28.55
2022-11-20T11:40:48.484Z,23.90
2022-11-20T11:42:55.876Z,23.67
2022-11-20T11:45:07.838Z,25.55
2022-11-20T11:47:25.764Z,25.80
2022-11-20T11:49:32.718Z,26.90
2022-11-20T11:51:52.539Z,22.98
2022-11-20T11:54:01.008Z,26.55
2022-11-20T11:56:18.130Z,27.90
2022-11-20T11:58:48.727Z,25.90
2022-11-20T12:01:30.493Z,25.55
2022-11-20T12:03:38.826Z,24.02
2022-11-20T12:05:46.207Z,27.50
2022-11-20T12:08:12.728Z,26.42
2022-11-20T12:10:49.689Z,30.27
2022-11-20T12:13:02.084Z,27.42
2022-11-20T12:15:26.752Z,29.65
2022-11-20T12:17:35.287Z,24.83
2022-11-20T12:19:41.263Z,25.35
2022-11-20T12:22:23.936Z,26.92
2022-11-20T12:24:41.895Z,31.20
2022-11-20T12:27:14.584Z,28.60
2022-11-20T12:29:38.394Z,26.23
2022-11-20T12:31:55.824Z,25.17
2022-11-20T12:34:20.437Z,26.15
2022-11-20T12:37:00.037Z,29.70
2022-11-20T12:39:42.686Z,28.23
2022-11-20T12:42:33.697Z,28.40
2022-11-20T12:45:03.805Z,28.30
2022-11-20T12:47:42.973Z,26.90
2022-11-20T12:50:10.936Z,28.30
2022-11-20T12:52:51.259Z,25.75
2022-11-20T12:55:35.124Z,29.45
2022-11-20T12:58:06.011Z,29.15
2022-11-20T13:00:09.043Z,29.73
2022-11-20T13:02:32.296Z,27.52
2022-11-20T13:04:38.304Z,28.15
2022-11-20T13:06:58.117Z,25.38
2022-11-20T13:09:12.636Z,25.35
2022-11-20T13:11:22.599Z,27.35
2022-11-20T13:13:58.046Z,28.60
2022-11-20T13:16:16.954Z,27.15
2022-11-20T13:18:19.843Z,31.63
2022-11-20T13:20:42.106Z,27.90
2022-11-20T13:23:07.237Z,26.45
2022-11-20T13:25:27.959Z,25.48
2022-11-20T13:27:32.572Z,25.25
2022-11-20T13:30:22.955Z,24.58
2022-11-20T13:32:26.345Z,29.88
2022-11-20T13:34:31.535Z,30.48
2022-11-20T13:36:54.555Z,29.35
2022-11-20T13:39:04.505Z,27.05
2022-11-20T13:41:28.289Z,28.52
2022-11-20T13:43:54.707Z,28.02
2022-11-20T13:46:06.197Z,30.40
2022-11-20T13:48:57.413Z,30.05
2022-11-20T13:51:32.529Z,30.65
2022-11-20T13:54:13.995Z,28.77
2022-11-20T13:56:51.664Z,27.83
2022-11-20T13:59:22.380Z,31.77
2022-11-20T14:01:47.422Z,27.70
2022-11-20T14:04:09.879Z,27.63
2022-11-20T14:06:30.117Z,28.13
2022-11-20T14:08:52.030Z,26.88
2022-11-20T14:13:22.153Z,38.28
2022-11-20T14:15:33.335Z,32.25
2022-11-20T14:17:46.346Z,31.08
2022-11-20T14:19:54.527Z,29.77
2022-11-20T14:22:23.563Z,31.95
2022-11-20T14:24:40.190Z,32.72
2022-11-20T14:26:48.552Z,35.67
2022-11-20T14:28:53.875Z,29.17
2022-11-20T14:31:18.749Z,31.40
2022-11-20T14:33:46.746Z,31.58
2022-11-20T14:35:56.291Z,28.27
2022-11-20T14:38:01.521Z,28.35
2022-11-20T14:40:04.603Z,27.80
2022-11-20T14:42:23.647Z,27.42
2022-11-20T14:44:34.925Z,31.85
2022-11-20T14:46:38.309Z,29.83
2022-11-20T14:48:52.802Z,34.40
2022-11-20T14:50:59.526Z,31.05
2022-11-20T14:53:02.874Z,31.30
2022-11-20T14:55:12.851Z,32.55
2022-11-20T14:57:55.742Z,34.75
2022-11-20T15:00:17.860Z,35.33
2022-11-20T15:02:20.353Z,33.15
2022-11-20T15:04:51.016Z,40.45
2022-11-20T15:06:58.431Z,42.17
2022-11-20T15:09:15.821Z,39.17
2022-11-20T15:11:35.350Z,31.40
2022-11-20T15:13:45.022Z,33.42
2022-11-20T15:15:57.740Z,35.22
2022-11-20T15:18:00.893Z,33.50
2022-11-20T15:20:08.257Z,34.58
2022-11-20T15:22:14.978Z,37.17
2022-11-20T15:24:23.807Z,33.33
2022-11-20T15:26:33.336Z,31.00
2022-11-20T15:28:51.568Z,34.65
2022-11-20T15:30:56.898Z,31.60
2022-11-20T15:32:59.140Z,31.83
2022-11-20T15:35:03.328Z,35.17
2022-11-20T15:37:06.465Z,38.15
2022-11-20T15:39:30.424Z,41.08
2022-11-20T15:41:36.970Z,31.30
2022-11-20T15:43:42.361Z,28.35
2022-11-20T15:45:46.986Z,37.55
2022-11-20T15:47:50.145Z,32.80
2022-11-20T15:50:00.783Z,35.88
2022-11-20T15:52:03.919Z,30.52
2022-11-20T15:54:27.542Z,33.30
2022-11-20T15:56:36.213Z,31.83
2022-11-20T15:58:39.961Z,39.60
2022-11-20T16:00:42.943Z,36.35
2022-11-20T16:02:45.950Z,32.83
2022-11-20T16:04:55.839Z,32.28
2022-11-20T16:06:59.677Z,27.90
2022-11-20T16:09:05.139Z,26.95
2022-11-20T16:11:07.676Z,27.85
2022-11-20T16:13:35.047Z,29.00
2022-11-20T16:15:48.029Z,28.17
2022-11-20T16:17:51.850Z,28.95
2022-11-20T16:20:04.199Z,29.05
2022-11-20T16:22:07.603Z,30.27
2022-11-20T16:24:13.981Z,36.58
2022-11-20T16:26:33.229Z,29.98
2022-11-20T16:28:35.822Z,29.27
2022-11-20T16:30:56.919Z,30.90
2022-11-20T16:33:17.517Z,29.67
2022-11-20T16:35:21.159Z,35.17
2022-11-20T16:37:27.968Z,33.78
2022-11-20T16:39:32.351Z,34.13
2022-11-20T16:41:36.268Z,33.97
2022-11-20T16:43:38.797Z,33.30
2022-11-20T16:45:47.547Z,30.30
2022-11-20T16:48:01.053Z,32.00
2022-11-20T16:50:08.146Z,32.67
2022-11-20T16:52:35.800Z,30.70
2022-11-20T16:54:40.076Z,30.27
2022-11-20T16:56:54.044Z,30.15
2022-11-20T16:59:14.193Z,30.10
2022-11-20T17:01:22.365Z,30.15
2022-11-20T17:03:26.101Z,31.50
2022-11-20T17:05:44.011Z,34.33
2022-11-20T17:07:48.355Z,30.10
2022-11-20T17:09:51.153Z,29.13
2022-11-20T17:12:11.959Z,26.92
2022-11-20T17:14:14.683Z,27.88
2022-11-20T17:16:23.211Z,28.73
2022-11-20T17:18:28.334Z,27.48
2022-11-20T17:20:32.927Z,28.45
2022-11-20T17:22:35.917Z,28.48
2022-11-20T17:24:41.810Z,30.92
2022-11-20T17:26:50.641Z,30.80
2022-11-20T17:29:02.062Z,32.22
2022-11-20T17:31:18.378Z,37.88
2022-11-20T17:33:20.735Z,33.35
2022-11-20T17:35:23.289Z,30.48
2022-11-20T17:37:27.053Z,32.45
2022-11-20T17:39:41.872Z,33.38
2022-11-20T17:42:12.111Z,32.83
2022-11-20T17:44:15.858Z,30.02
2022-11-20T17:46:22.395Z,30.05
2022-11-20T17:48:31.039Z,30.73
2022-11-20T17:50:38.588Z,28.00
2022-11-20T17:52:44.540Z,29.85
2022-11-20T17:54:47.068Z,30.63
2022-11-20T17:57:15.502Z,32.08
2022-11-20T17:59:19.474Z,33.90
2022-11-20T18:01:31.820Z,37.55
2022-11-20T18:03:35.874Z,31.55
2022-11-20T18:05:39.059Z,32.55
2022-11-20T18:07:53.769Z,31.80
2022-11-20T18:10:06.237Z,29.17
2022-11-20T18:12:17.026Z,31.98
2022-11-20T18:14:37.289Z,30.30
2022-11-20T18:16:46.973Z,32.63
2022-11-20T18:18:50.627Z,29.38
2022-11-20T18:20:56.565Z,31.73
2022-11-20T18:23:01.045Z,28.88
2022-11-20T18:25:03.827Z,30.30
2022-11-20T18:27:09.263Z,33.88
2022-11-20T18:29:13.719Z,34.92
2022-11-20T18:31:18.029Z,33.85
2022-11-20T18:33:23.075Z,29.83
2022-11-20T18:35:30.484Z,34.00
2022-11-20T18:37:55.814Z,33.70
2022-11-20T18:40:08.476Z,32.53
2022-11-20T18:42:35.448Z,33.42
2022-11-20T18:44:55.834Z,33.03
2022-11-20T18:47:14.217Z,33.50
2022-11-20T18:49:19.280Z,33.40
2022-11-20T18:51:23.293Z,31.67
2022-11-20T18:53:27.796Z,32.55
2022-11-20T18:55:31.546Z,33.25
2022-11-20T18:57:34.814Z,32.05
2022-11-20T18:59:47.399Z,31.98
2022-11-20T19:01:53.498Z,30.90
2022-11-20T19:03:58.248Z,31.45
2022-11-20T19:06:16.440Z,31.73
2022-11-20T19:08:18.846Z,31.58
2022-11-20T19:10:27.538Z,36.45
2022-11-20T19:12:30.579Z,36.95
2022-11-20T19:14:35.205Z,38.90
2022-11-20T19:16:49.379Z,39.55
2022-11-20T19:18:54.170Z,39.08
2022-11-20T19:21:15.189Z,42.08
2022-11-20T19:23:23.748Z,40.53
2022-11-20T19:25:38.173Z,40.60
2022-11-20T19:27:41.597Z,38.55
2022-11-20T19:29:44.116Z,41.10
2022-11-20T19:31:46.606Z,39.88
2022-11-20T19:33:54.944Z,38.40
2022-11-20T19:36:00.255Z,43.17
2022-11-20T19:38:14.204Z,43.70
2022-11-20T19:40:23.801Z,40.13
2022-11-20T19:42:29.393Z,37.72
2022-11-20T19:44:34.706Z,38.65
2022-11-20T19:46:43.551Z,35.47
2022-11-20T19:48:46.645Z,37.53
2022-11-20T19:50:52.070Z,36.08
2022-11-20T19:52:58.887Z,37.65
2022-11-20T19:55:04.918Z,36.58
2022-11-20T19:57:07.741Z,36.47
2022-11-20T19:59:15.819Z,40.60
2022-11-20T20:01:27.600Z,39.58
2022-11-20T20:03:30.393Z,39.30
2022-11-20T20:05:36.597Z,43.72
2022-11-20T20:07:46.649Z,40.60
2022-11-20T20:09:51.107Z,43.83
2022-11-20T20:12:04.796Z,38.83
2022-11-20T20:14:15.475Z,37.88
2022-11-20T20:16:21.611Z,42.53
2022-11-20T20:18:24.202Z,40.53
2022-11-20T20:20:37.720Z,43.55
2022-11-20T20:22:49.090Z,43.30
2022-11-20T20:24:54.326Z,36.67
2022-11-20T20:26:58.273Z,35.40
2022-11-20T20:29:02.938Z,35.85
2022-11-20T20:31:15.649Z,38.03
2022-11-20T20:33:20.475Z,37.50
2022-11-20T20:35:23.388Z,43.45
2022-11-20T20:37:26.017Z,42.00
2022-11-20T20:39:31.376Z,39.38
2022-11-20T20:41:33.945Z,40.55
2022-11-20T20:43:57.513Z,35.40
2022-11-20T20:45:59.926Z,35.42
2022-11-20T20:48:02.287Z,42.67
2022-11-20T20:50:10.177Z,39.15
2022-11-20T20:52:16.718Z,41.33
2022-11-20T20:54:19.212Z,43.65
2022-11-20T20:56:21.772Z,39.63
2022-11-20T20:58:24.819Z,36.67
2022-11-20T21:00:27.333Z,34.40
2022-11-20T21:02:29.843Z,36.22
2022-11-20T21:04:42.413Z,35.97
2022-11-20T21:06:44.745Z,34.80
2022-11-20T21:08:49.970Z,34.38
2022-11-20T21:10:55.208Z,35.50
2022-11-20T21:12:57.226Z,33.97
2022-11-20T21:15:00.075Z,33.13
2022-11-20T21:17:03.393Z,35.95
2022-11-20T21:19:05.612Z,36.13
2022-11-20T21:21:28.090Z,34.08
2022-11-20T21:23:30.730Z,41.55
2022-11-20T21:25:37.673Z,38.97
2022-11-20T21:27:39.841Z,42.35
2022-11-20T21:29:42.718Z,39.20
2022-11-20T21:31:45.390Z,40.15
2022-11-20T21:33:48.946Z,40.03
2022-11-20T21:35:50.868Z,39.40
2022-11-20T21:37:52.989Z,40.42
2022-11-20T21:39:55.094Z,38.30
2022-11-20T21:42:00.176Z,39.55
2022-11-20T21:46:28.705Z,40.22
2022-11-20T21:48:33.286Z,39.78
2022-11-20T21:50:35.667Z,38.50
2022-11-20T21:52:38.184Z,41.00
2022-11-20T21:54:40.186Z,38.63
2022-11-20T21:56:43.428Z,39.55
2022-11-20T21:58:46.269Z,41.17
2022-11-20T22:00:48.457Z,38.08
2022-11-20T22:02:53.625Z,44.55
2022-11-20T22:04:56.749Z,41.92
2022-11-20T22:06:58.854Z,41.47
2022-11-20T22:09:03.123Z,43.85
2022-11-20T22:11:09.012Z,44.22
2022-11-20T22:13:29.721Z,45.97
2022-11-20T22:15:58.849Z,45.35
2022-11-20T22:18:13.949Z,43.10
2022-11-20T22:20:19.441Z,42.17
2022-11-20T22:22:22.450Z,47.72
2022-11-20T22:24:26.561Z,47.28
2022-11-20T22:26:40.160Z,45.65
2022-11-20T22:28:46.386Z,48.90
2022-11-20T22:30:49.429Z,46.53
2022-11-20T22:32:54.279Z,48.70
2022-11-20T22:34:56.159Z,50.08
2022-11-20T22:36:58.153Z,46.08
2022-11-20T22:39:02.627Z,48.45
2022-11-20T22:41:19.723Z,48.25
2022-11-20T22:43:21.602Z,46.08
2022-11-20T22:45:26.447Z,47.92
2022-11-20T22:47:28.277Z,52.08
2022-11-20T22:49:30.395Z,51.92
2022-11-20T22:51:39.997Z,50.17
2022-11-20T22:53:43.082Z,48.83
2022-11-20T22:55:49.552Z,51.65
2022-11-20T22:57:51.593Z,48.55
2022-11-20T22:59:53.432Z,49.25
2022-11-20T23:01:55.310Z,52.55
2022-11-20T23:03:59.602Z,50.15
2022-11-20T23:06:02.217Z,54.08
2022-11-20T23:08:04.550Z,54.28
2022-11-20T23:10:10.256Z,48.10
2022-11-20T23:12:12.092Z,55.53
2022-11-20T23:14:15.506Z,50.20
2022-11-20T23:16:20.120Z,54.05
2022-11-20T23:18:23.308Z,52.60
2022-11-20T23:20:25.143Z,48.50
2022-11-20T23:22:27.011Z,52.50
2022-11-20T23:24:29.266Z,51.60
2022-11-20T23:26:34.353Z,50.80
2022-11-20T23:28:36.639Z,53.38
2022-11-20T23:30:39.586Z,50.00
2022-11-20T23:32:43.491Z,48.72
2022-11-20T23:34:45.341Z,46.85
2022-11-20T23:36:47.281Z,47.90
2022-11-20T23:38:49.126Z,47.88
2022-11-20T23:40:52.480Z,50.53
2022-11-20T23:43:12.746Z,52.83
2022-11-20T23:45:14.725Z,52.67
2022-11-20T23:47:16.567Z,54.88
2022-11-20T23:49:18.620Z,53.35
2022-11-20T23:51:20.510Z,49.95
2022-11-20T23:53:23.401Z,48.78
2022-11-20T23:55:25.234Z,55.33
2022-11-20T23:57:27.135Z,55.33
2022-11-20T23:59:29.027Z,49.47
